20 лет Октября

Карта отелей и гостиниц, располагающихся рядом с аэропортом 20 лет Октября :

20 лет Октября Томская область 59° 46' 9.3" N, 78° 50' 6.36" E
20 лет Октября Томская область 59° 46' 9.3" N, 78° 50' 6.36" E
Код аэродрома ИКАО: 
HB6D
Код аэродрома RU: 
ХБ6Д
Координаты: 
N59.76925° E078.83510°
Превышение над уровнем моря : 
85
Основная полоса: 
Курс магнитный: 
Длина основной ВПП: 
Ширина основной ВПП: 
Покрытие основной ВПП: 
Освещение ВПП: 
Тип: 
Вертодром
Класс аэродрома: 
Принадлежность: 
ГА
Статус: 
Действующий
Сайт: 
E-mail аэродрома: 
Страна: 
Россия
Регион: 
Томская область
Город: 
Дополнительная информация: 

Найти трансфер

С помощью этой формы Вы можете найти трансфер из аэропорта 20 лет Октября в город, аэропорт или вокзал:

Карта места

Javascript is required to view this map.

Погода в аэропортах:

Авиационная погода в Элисте

Регион: 
Погода METAR: 
URWI 271030Z 12012MPS 9000 -DS NSC 22/01 Q1022 R09/010065 TEMPO 12013G20MPS 1500 -DS
Время наблюдения: 
2020-09-27T10:30:00Z
Температура C: 
22.0
Точка росы: 
1.0
Направление ветра: 
120
Скорость ветра (узлы): 
23
Метеорологическая видимость: 
5.59
Явления погоды: 
-DS
Условия полета: 
VFR
Аэропорт подробнее: 

Авиационная погода в Куопио

Регион: 
Погода METAR: 
EFKU 271020Z AUTO 09004KT 060V130 1100 R33/P2000N BR NCD 15/12 Q1022
Время наблюдения: 
2020-09-27T10:20:00Z
Температура C: 
15.0
Точка росы: 
12.0
Направление ветра: 
90
Скорость ветра (узлы): 
4
Метеорологическая видимость: 
0.68
Явления погоды: 
BR
Условия полета: 
LIFR

Авиационная погода в Борисполе

Регион: 
Погода METAR: 
UKBB 271030Z 12009MPS 080V150 5000 BR BKN040 16/14 Q1008 R18L/290050 TEMPO 14011G18MPS 2100 -TSRA SQ BKN014CB
Время наблюдения: 
2020-09-27T10:30:00Z
Температура C: 
16.0
Точка росы: 
14.0
Направление ветра: 
120
Скорость ветра (узлы): 
17
Метеорологическая видимость: 
3.11
Явления погоды: 
BR
Условия полета: 
MVFR
Аэропорт подробнее: 

Авиационная погода в Ивано-Франковске

Регион: 
Погода METAR: 
UKLI 271030Z 09001MPS 8000 -SHRA BKN012CB BKN023 11/10 Q1007 R28/290565 NOSIG
Время наблюдения: 
2020-09-27T10:30:00Z
Температура C: 
11.0
Точка росы: 
10.0
Направление ветра: 
90
Скорость ветра (узлы): 
2
Метеорологическая видимость: 
4.97
Явления погоды: 
-SHRA
Условия полета: 
MVFR
Аэропорт подробнее: